Time;durP1;ratioP1;P1;durP2;ratioP2;P2;SDS_P1;SDS_P2;PMS_P1;PMS_P2;Temp;Humidity;BMP_temperature;BMP_pressure;BME280_temperature;BME280_humidity;BME280_pressure;Samples;Min_cycle;Max_cycle;Signal;HPM_P1;HPM_P2
2022/09/24 00:02:31;;;;;;;63.53;35.92;;;;;;;14.82;65.94;101264.16;5094942;28;20400;-42
2022/09/24 00:05:03;;;;;;;57.90;32.65;;;;;;;14.86;66.04;101273.44;5094651;28;20125;-45
2022/09/24 00:07:36;;;;;;;57.75;33.42;;;;;;;14.87;65.95;101273.28;5095306;28;20683;-41
2022/09/24 00:10:09;;;;;;;58.17;30.40;;;;;;;14.85;65.97;101263.81;5095578;28;20380;-43
2022/09/24 00:12:42;;;;;;;55.42;32.78;;;;;;;14.78;66.00;101255.69;5097665;28;20049;-41
2022/09/24 00:15:15;;;;;;;52.38;31.10;;;;;;;14.85;65.89;101264.66;5098406;28;20513;-41
2022/09/24 00:17:49;;;;;;;55.60;33.30;;;;;;;14.75;65.97;101243.56;5100104;28;20483;-45
2022/09/24 00:20:21;;;;;;;59.38;33.30;;;;;;;14.76;66.10;101253.19;5102161;28;20050;-45
2022/09/24 00:22:54;;;;;;;65.53;34.95;;;;;;;14.79;66.20;101259.16;5097455;28;20074;-43
2022/09/24 00:28:14;;;;;;;54.45;31.17;;;;;;;14.73;66.41;101256.16;5075205;28;20117;-43
2022/09/24 00:30:47;;;;;;;63.75;35.65;;;;;;;14.80;66.22;101252.84;5097019;28;20403;-37
2022/09/24 00:33:21;;;;;;;61.97;34.47;;;;;;;14.82;66.16;101257.00;5097568;28;20373;-42
2022/09/24 00:35:58;;;;;;;48.53;30.70;;;;;;;14.82;66.28;101258.84;5106922;28;20449;-47
2022/09/24 00:38:32;;;;;;;57.28;32.50;;;;;;;14.85;66.17;101262.00;5098757;28;20501;-42
2022/09/24 00:41:05;;;;;;;52.55;30.13;;;;;;;14.82;66.14;101249.03;5097722;28;20919;-45
2022/09/24 00:43:38;;;;;;;60.88;33.80;;;;;;;14.83;66.15;101248.00;5098074;28;20510;-44
2022/09/24 00:46:17;;;;;;;57.25;32.80;;;;;;;14.94;66.23;101262.81;5097382;28;20480;-47
2022/09/24 00:48:54;;;;;;;47.00;28.58;;;;;;;14.90;66.08;101257.00;5092465;28;20100;-47
2022/09/24 00:51:29;;;;;;;58.35;31.45;;;;;;;14.83;66.10;101249.84;5099101;28;20486;-42
2022/09/24 00:54:06;;;;;;;53.28;31.35;;;;;;;14.86;66.52;101249.50;5097256;28;20038;-44
2022/09/24 00:56:42;;;;;;;54.88;31.02;;;;;;;14.84;66.32;101246.22;5098712;28;20054;-40
2022/09/24 00:59:16;;;;;;;49.88;30.65;;;;;;;14.83;66.55;101245.34;5099347;28;20051;-41
2022/09/24 01:01:50;;;;;;;57.38;30.88;;;;;;;14.80;66.51;101244.88;5093955;28;20363;-41
2022/09/24 01:04:26;;;;;;;50.70;30.15;;;;;;;14.78;66.64;101236.25;5096852;28;20133;-44
2022/09/24 01:07:00;;;;;;;49.45;28.90;;;;;;;14.74;66.59;101238.38;5097440;28;20205;-45
2022/09/24 01:09:33;;;;;;;49.97;30.02;;;;;;;14.71;66.70;101236.91;5096430;28;20062;-43
2022/09/24 01:12:15;;;;;;;50.17;30.23;;;;;;;14.73;66.73;101232.25;5097188;28;20514;-43
2022/09/24 01:15:04;;;;;;;43.90;27.45;;;;;;;14.73;66.96;101240.22;5101989;28;20050;-45
2022/09/24 01:17:45;;;;;;;46.28;29.27;;;;;;;14.72;67.11;101243.88;5095268;28;21405;-44
2022/09/24 01:21:01;;;;;;;43.97;28.38;;;;;;;14.75;67.08;101243.56;5094045;28;20109;-46
2022/09/24 01:24:00;;;;;;;49.55;28.20;;;;;;;14.68;67.04;101226.63;5080019;28;20050;-42
2022/09/24 01:26:57;;;;;;;45.55;27.92;;;;;;;14.70;66.95;101224.59;5094996;28;20054;-45
2022/09/24 01:29:54;;;;;;;40.03;26.98;;;;;;;14.74;66.91;101231.25;5097259;28;20500;-44
2022/09/24 01:32:36;;;;;;;46.55;29.83;;;;;;;14.75;66.91;101227.59;5094317;28;20058;-46
2022/09/24 01:35:17;;;;;;;47.63;29.90;;;;;;;14.74;66.91;101227.75;5097448;28;20414;-43
2022/09/24 01:37:54;;;;;;;41.88;28.17;;;;;;;14.80;66.81;101223.59;5097052;28;20129;-47
2022/09/24 01:40:30;;;;;;;45.65;29.92;;;;;;;14.81;67.05;101225.28;5097092;28;20190;-43
2022/09/24 01:43:04;;;;;;;42.78;28.02;;;;;;;14.73;66.86;101213.63;5092042;28;20439;-45
2022/09/24 01:45:39;;;;;;;44.97;29.50;;;;;;;14.85;66.84;101235.41;5095903;28;22629;-44
2022/09/24 01:48:12;;;;;;;47.67;28.55;;;;;;;14.81;66.93;101222.63;5096802;28;20419;-42
2022/09/24 01:50:50;;;;;;;44.00;30.27;;;;;;;14.80;66.65;101219.09;5085201;28;20157;-46
2022/09/24 01:53:27;;;;;;;46.38;30.05;;;;;;;14.80;66.95;101220.94;5094359;28;20089;-47
2022/09/24 01:56:05;;;;;;;45.78;30.83;;;;;;;14.81;66.94;101209.31;5096438;28;20392;-46
2022/09/24 01:58:46;;;;;;;47.30;32.17;;;;;;;14.84;66.65;101204.50;5097391;28;20046;-44
2022/09/24 02:01:26;;;;;;;48.97;30.77;;;;;;;14.87;66.93;101209.47;5088050;28;20566;-45
2022/09/24 02:04:05;;;;;;;56.05;31.45;;;;;;;14.89;66.76;101201.31;5091752;28;20054;-46
2022/09/24 02:06:42;;;;;;;50.95;32.47;;;;;;;14.93;66.71;101207.97;5094837;28;20615;-44
2022/09/24 02:09:33;;;;;;;46.15;31.50;;;;;;;14.87;66.81;101198.00;5105328;28;20045;-46
2022/09/24 02:12:10;;;;;;;48.00;29.27;;;;;;;14.90;66.73;101203.81;5101518;28;20415;-47
2022/09/24 02:14:48;;;;;;;41.55;27.58;;;;;;;14.90;66.91;101203.81;5095311;28;20454;-47
2022/09/24 02:17:24;;;;;;;43.83;29.90;;;;;;;14.87;67.10;101187.38;5093276;28;20471;-47
2022/09/24 02:19:59;;;;;;;44.10;27.58;;;;;;;14.91;66.92;101194.00;5096499;28;20414;-44
2022/09/24 02:22:32;;;;;;;42.92;29.60;;;;;;;14.87;66.90;101182.06;5096773;28;20474;-42
2022/09/24 02:25:08;;;;;;;45.72;28.70;;;;;;;14.88;66.96;101179.22;5096426;28;20043;-42
2022/09/24 02:27:41;;;;;;;47.42;30.42;;;;;;;14.88;67.02;101181.06;5094687;28;20672;-49
2022/09/24 02:30:14;;;;;;;;;;;;;;;14.99;66.98;101196.66;5099685;28;20264;-43
2022/09/24 02:32:49;;;;;;;45.35;27.77;;;;;;;14.86;67.09;101175.06;5093155;28;19929;-47
2022/09/24 02:35:21;;;;;;;48.17;32.33;;;;;;;14.92;67.08;101187.69;5100214;28;20065;-45
2022/09/24 02:37:53;;;;;;;49.73;31.53;;;;;;;14.89;67.11;101190.69;5100067;28;20482;-42
2022/09/24 02:40:27;;;;;;;50.38;32.45;;;;;;;14.85;67.09;101189.38;5095542;28;20681;-46
2022/09/24 02:43:00;;;;;;;50.70;32.67;;;;;;;14.82;66.93;101179.88;5096632;28;20422;-45
2022/09/24 02:45:32;;;;;;;48.08;30.48;;;;;;;14.84;67.00;101182.41;5096148;28;20313;-42
2022/09/24 02:48:06;;;;;;;51.60;30.25;;;;;;;14.91;67.15;101194.00;5098274;28;20066;-46
2022/09/24 02:50:39;;;;;;;46.90;29.25;;;;;;;14.85;67.08;101190.19;5095158;28;20050;-46
2022/09/24 02:53:12;;;;;;;50.58;31.48;;;;;;;14.90;66.93;101184.38;5098027;28;20514;-45
2022/09/24 02:55:44;;;;;;;48.53;30.63;;;;;;;14.84;66.97;101183.22;5095217;28;20051;-47
2022/09/24 02:58:17;;;;;;;44.30;29.02;;;;;;;14.87;67.00;101182.88;5090385;28;20419;-44
2022/09/24 03:00:50;;;;;;;48.53;30.25;;;;;;;14.90;67.17;101184.38;5096688;28;20053;-48
2022/09/24 03:03:24;;;;;;;42.83;27.58;;;;;;;14.86;67.07;101183.03;5098315;28;20572;-44
2022/09/24 03:05:56;;;;;;;44.92;29.13;;;;;;;14.82;67.04;101179.06;5098163;28;20065;-45
2022/09/24 03:08:31;;;;;;;43.58;27.60;;;;;;;14.87;66.98;101182.06;5097066;28;20050;-46
2022/09/24 03:11:03;;;;;;;40.83;28.05;;;;;;;14.90;67.00;101182.53;5095129;28;20329;-44
2022/09/24 03:13:36;;;;;;;47.55;29.52;;;;;;;14.85;66.63;101174.22;5095638;28;20205;-47
2022/09/24 03:16:09;;;;;;;46.53;29.85;;;;;;;14.88;67.08;101184.53;5094272;28;20110;-42
2022/09/24 03:18:43;;;;;;;46.72;29.98;;;;;;;14.91;67.01;101172.72;5099227;28;20050;-43
2022/09/24 03:21:19;;;;;;;46.38;29.63;;;;;;;14.97;67.09;101182.69;5093477;28;20046;-44
2022/09/24 03:23:51;;;;;;;40.35;29.27;;;;;;;14.92;66.84;101174.38;5089392;28;20043;-45
2022/09/24 03:26:24;;;;;;;41.08;28.45;;;;;;;14.93;66.92;101157.44;5099056;28;20943;-49
2022/09/24 03:28:57;;;;;;;47.75;29.98;;;;;;;15.02;66.83;101169.72;5091758;28;20423;-45
2022/09/24 03:31:28;;;;;;;47.35;29.90;;;;;;;15.04;66.78;101173.03;5093898;28;20058;-45
2022/09/24 03:34:02;;;;;;;58.38;36.38;;;;;;;14.97;66.83;101167.56;5093344;28;20451;-44
2022/09/24 03:36:35;;;;;;;46.05;30.02;;;;;;;14.95;66.99;101171.38;5093575;28;20055;-43
2022/09/24 03:39:07;;;;;;;44.83;27.70;;;;;;;14.95;66.94;101171.38;5090976;28;21652;-43
2022/09/24 03:41:40;;;;;;;38.70;22.95;;;;;;;14.92;66.93;101161.91;5083773;28;20046;-43
2022/09/24 03:44:13;;;;;;;31.92;19.67;;;;;;;14.90;67.23;101181.72;5089218;28;20182;-43
2022/09/24 03:46:46;;;;;;;34.45;20.38;;;;;;;14.92;68.11;101185.84;5093895;28;20399;-42
2022/09/24 03:49:22;;;;;;;34.65;20.90;;;;;;;14.81;68.72;101182.72;5094345;28;20522;-47
2022/09/24 03:51:54;;;;;;;33.78;20.77;;;;;;;14.67;69.75;101171.78;5097536;28;20046;-50
2022/09/24 03:54:27;;;;;;;26.52;16.60;;;;;;;14.69;70.19;101180.41;5097708;28;20180;-50
2022/09/24 03:57:00;;;;;;;31.35;18.23;;;;;;;14.66;70.55;101179.94;5098624;28;20120;-44
2022/09/24 03:59:32;;;;;;;29.45;15.40;;;;;;;14.66;70.41;101180.75;5098154;28;20042;-47
2022/09/24 04:02:05;;;;;;;28.42;16.20;;;;;;;14.65;70.32;101184.41;5099729;28;20047;-47
2022/09/24 04:04:40;;;;;;;27.55;15.48;;;;;;;14.67;69.99;101182.41;5098322;28;21534;-44
2022/09/24 04:07:13;;;;;;;20.00;12.35;;;;;;;14.72;69.61;101176.59;5102348;28;20307;-44
2022/09/24 04:09:46;;;;;;;15.88;9.50;;;;;;;14.68;69.89;101172.59;5096591;28;20626;-47
2022/09/24 04:12:19;;;;;;;17.65;6.72;;;;;;;14.66;70.49;101183.41;5094216;28;20097;-43
2022/09/24 04:14:51;;;;;;;15.07;6.63;;;;;;;14.64;70.20;101180.06;5099542;28;20047;-45
2022/09/24 04:17:26;;;;;;;9.23;4.60;;;;;;;14.56;70.40;101169.47;5098950;28;20490;-43
2022/09/24 04:20:01;;;;;;;10.90;6.13;;;;;;;14.60;69.93;101186.75;5097493;28;20132;-44
2022/09/24 04:22:33;;;;;;;8.60;4.22;;;;;;;14.56;70.08;101193.41;5102449;28;20442;-44
2022/09/24 04:25:07;;;;;;;12.98;5.32;;;;;;;14.45;70.00;101183.06;5102661;28;20414;-50
2022/09/24 04:27:40;;;;;;;10.50;4.40;;;;;;;14.39;70.22;101173.09;5100536;28;20047;-45
2022/09/24 04:30:17;;;;;;;7.40;4.53;;;;;;;14.41;69.71;101181.75;5100728;28;20129;-46
2022/09/24 04:32:51;;;;;;;11.43;4.70;;;;;;;14.37;70.36;101175.94;5096418;28;20395;-48
2022/09/24 04:35:25;;;;;;;11.88;6.07;;;;;;;14.35;70.63;101193.03;5091591;28;20125;-50
2022/09/24 04:37:59;;;;;;;18.15;7.03;;;;;;;14.41;70.17;101195.03;5097258;28;20513;-42
2022/09/24 04:40:32;;;;;;;16.23;6.75;;;;;;;14.38;70.45;101192.69;5093997;28;20066;-44
2022/09/24 04:43:05;;;;;;;;;;;;;;;14.38;70.45;101193.53;5099875;28;20423;-44
2022/09/24 04:45:38;;;;;;;14.95;6.03;;;;;;;14.30;70.10;101183.72;5097422;28;21835;-42
2022/09/24 04:48:10;;;;;;;12.98;5.57;;;;;;;14.35;70.04;101188.53;5100066;28;20065;-44
2022/09/24 04:50:44;;;;;;;11.68;6.10;;;;;;;14.37;69.80;101194.53;5096469;28;20414;-44
2022/09/24 04:53:17;;;;;;;15.02;5.45;;;;;;;14.38;69.64;101198.03;5093676;28;20192;-45
2022/09/24 04:55:50;;;;;;;13.45;5.50;;;;;;;14.35;69.66;101187.72;5093853;28;20054;-41
2022/09/24 04:58:23;;;;;;;12.88;4.85;;;;;;;14.38;69.18;101192.69;5096863;28;20356;-41
2022/09/24 05:00:55;;;;;;;10.85;4.78;;;;;;;14.35;69.10;101188.53;5095380;28;20490;-40
2022/09/24 05:03:28;;;;;;;18.80;5.70;;;;;;;14.40;69.09;101203.97;5097616;28;20065;-41
2022/09/24 05:06:02;;;;;;;15.52;5.22;;;;;;;14.34;69.44;101186.03;5095403;28;20042;-41
2022/09/24 05:08:34;;;;;;;21.17;5.43;;;;;;;14.40;69.32;101199.53;5098197;28;20065;-41
2022/09/24 05:11:08;;;;;;;15.18;4.85;;;;;;;14.46;69.82;101208.63;5095947;28;20503;-42
2022/09/24 05:13:40;;;;;;;14.90;4.93;;;;;;;14.37;69.64;101197.19;5096361;28;20053;-42
2022/09/24 05:16:13;;;;;;;34.80;6.82;;;;;;;14.43;70.47;101207.16;5098806;28;20055;-46
2022/09/24 05:18:45;;;;;;;19.48;5.07;;;;;;;14.34;70.83;101199.31;5100865;28;20038;-45
2022/09/24 05:21:20;;;;;;;22.95;4.80;;;;;;;14.36;71.57;101202.66;5098585;28;20438;-44
2022/09/24 05:23:52;;;;;;;12.50;4.07;;;;;;;14.39;71.52;101205.81;5100515;28;20069;-41
2022/09/24 05:29:15;;;;;;;19.58;5.90;;;;;;;14.40;71.19;101206.63;5095670;28;20062;-44
2022/09/24 05:31:48;;;;;;;16.88;4.57;;;;;;;14.39;71.51;101210.28;5099895;28;20046;-34
2022/09/24 05:34:21;;;;;;;19.10;3.78;;;;;;;14.41;71.09;101209.13;5092599;28;20430;-42
2022/09/24 05:36:55;;;;;;;;;;;;;;;14.47;70.91;101219.09;5096995;28;20051;-43
2022/09/24 05:39:28;;;;;;;16.80;4.55;;;;;;;14.34;71.02;101202.84;5097070;28;19945;-42
2022/09/24 05:42:03;;;;;;;11.52;3.47;;;;;;;14.32;71.13;101210.13;5091456;28;20121;-46
2022/09/24 05:44:36;;;;;;;18.15;5.22;;;;;;;14.33;70.45;101216.28;5094157;28;20055;-43
2022/09/24 05:47:08;;;;;;;;;;;;;;;14.39;70.41;101223.59;5097828;28;20082;-41
2022/09/24 05:49:41;;;;;;;18.88;3.45;;;;;;;14.36;70.33;101221.25;5096740;28;19925;-45
2022/09/24 05:52:15;;;;;;;17.10;2.97;;;;;;;14.32;70.47;101214.63;5096182;28;20073;-44
2022/09/24 05:54:48;;;;;;;16.48;3.90;;;;;;;14.29;70.42;101216.59;5097128;28;20077;-39
2022/09/24 05:57:20;;;;;;;15.70;3.60;;;;;;;14.32;70.94;101239.34;5084259;28;20417;-46
2022/09/24 05:59:53;;;;;;;20.85;5.18;;;;;;;14.27;71.11;101234.53;5089987;28;20057;-45
2022/09/24 06:02:26;;;;;;;24.13;4.43;;;;;;;14.24;70.95;101244.66;5096845;28;20046;-48
2022/09/24 06:04:59;;;;;;;20.67;4.05;;;;;;;14.22;70.90;101244.81;5111116;28;20066;-44
2022/09/24 06:07:33;;;;;;;17.63;4.35;;;;;;;14.24;71.41;101245.47;5112134;28;20386;-46
2022/09/24 06:10:20;;;;;;;14.27;3.63;;;;;;;14.21;71.52;101250.28;5112866;28;20042;-42
2022/09/24 06:12:53;;;;;;;21.98;3.95;;;;;;;14.17;71.79;101257.75;5108223;28;20387;-48
2022/09/24 06:15:26;;;;;;;19.02;5.13;;;;;;;14.06;72.35;101258.09;5112442;28;20049;-42
2022/09/24 06:17:59;;;;;;;13.15;3.38;;;;;;;14.15;72.70;101278.31;5112068;28;20128;-49
2022/09/24 06:20:32;;;;;;;21.60;4.75;;;;;;;14.00;72.90;101267.53;5111999;28;20050;-43
2022/09/24 06:23:06;;;;;;;16.70;3.67;;;;;;;14.01;72.92;101268.34;5112305;28;20128;-42
2022/09/24 06:25:39;;;;;;;22.15;5.05;;;;;;;13.92;73.01;101251.56;5113226;28;20050;-49
2022/09/24 06:28:11;;;;;;;16.10;4.20;;;;;;;13.96;73.07;101268.00;5113610;28;20077;-46
2022/09/24 06:30:44;;;;;;;23.80;4.82;;;;;;;14.02;73.03;101280.63;5113524;28;20767;-45
2022/09/24 06:33:16;;;;;;;17.33;3.10;;;;;;;14.04;73.02;101292.75;5114869;28;20549;-41
2022/09/24 06:35:49;;;;;;;15.98;2.88;;;;;;;14.06;72.83;101285.47;5112357;28;20135;-45
2022/09/24 06:38:23;;;;;;;17.15;3.45;;;;;;;14.16;72.87;101290.63;5114878;28;20057;-42
2022/09/24 06:41:00;;;;;;;24.50;3.53;;;;;;;14.24;72.32;101287.97;5119871;28;20457;-42
2022/09/24 06:43:33;;;;;;;22.70;4.07;;;;;;;14.30;72.08;101297.97;5114451;28;20117;-43
2022/09/24 06:46:06;;;;;;;26.25;6.32;;;;;;;14.33;71.92;101288.00;5115085;28;20410;-44
2022/09/24 06:48:39;;;;;;;21.30;3.60;;;;;;;14.38;71.54;101304.31;5113685;28;20181;-46
2022/09/24 06:51:11;;;;;;;17.10;3.40;;;;;;;14.35;71.60;101294.00;5112125;28;20050;-41
2022/09/24 06:53:45;;;;;;;18.90;4.13;;;;;;;14.41;71.63;101310.13;5112336;28;20116;-41
2022/09/24 06:56:18;;;;;;;16.92;3.67;;;;;;;14.42;71.63;101305.63;5108532;28;20125;-39
2022/09/24 06:58:51;;;;;;;11.25;3.83;;;;;;;14.49;71.37;101306.63;5109388;28;20046;-51
2022/09/24 07:01:23;;;;;;;17.75;3.38;;;;;;;14.49;71.08;101303.97;5110653;28;20042;-41
2022/09/24 07:03:56;;;;;;;13.18;3.85;;;;;;;14.52;71.10;101306.34;5111866;28;20054;-38
2022/09/24 07:07:28;;;;;;;26.70;5.57;;;;;;;14.56;70.92;101297.06;5114991;28;20082;-40
2022/09/24 07:09:23;;;;;;;11.07;3.15;;;;;;;14.72;70.60;101307.69;5110859;28;20445;-44
2022/09/24 07:12:00;;;;;;;14.30;3.28;;;;;;;14.70;70.26;101299.03;5111931;28;20513;-42
2022/09/24 07:14:32;;;;;;;18.83;4.30;;;;;;;14.80;70.18;101319.31;5112483;28;20490;-44
2022/09/24 07:17:14;;;;;;;14.38;2.97;;;;;;;14.80;70.01;101308.69;5112702;28;20498;-39
2022/09/24 07:19:46;;;;;;;26.48;4.25;;;;;;;14.90;69.38;101314.69;5109664;28;20069;-41
2022/09/24 07:22:19;;;;;;;19.27;2.67;;;;;;;14.93;69.53;101314.34;5108300;28;20042;-43
2022/09/24 07:24:53;;;;;;;10.27;2.50;;;;;;;14.96;69.38;101314.03;5114059;28;20546;-44
2022/09/24 07:27:27;;;;;;;21.75;3.67;;;;;;;15.04;69.27;101311.34;5117521;28;20049;-43
2022/09/24 07:29:59;;;;;;;14.55;2.97;;;;;;;15.11;69.11;101316.81;5116710;28;20545;-42
2022/09/24 07:32:32;;;;;;;8.50;2.05;;;;;;;15.09;68.76;101311.69;5118113;28;20050;-41
2022/09/24 07:35:06;;;;;;;8.15;2.13;;;;;;;15.23;68.39;101324.28;5117571;28;20053;-42
2022/09/24 07:37:38;;;;;;;9.30;2.50;;;;;;;15.24;68.13;101309.19;5099402;28;20064;-41
2022/09/24 07:40:13;;;;;;;18.38;4.18;;;;;;;15.31;68.14;101327.94;5095573;28;20400;-42
2022/09/24 07:42:48;;;;;;;16.05;2.72;;;;;;;15.32;68.05;101333.09;5096427;28;20035;-39
2022/09/24 07:45:21;;;;;;;7.30;2.40;;;;;;;15.12;67.81;101308.69;5094276;28;20495;-40
2022/09/24 07:48:01;;;;;;;11.27;2.00;;;;;;;15.15;67.90;101326.97;5105766;28;20525;-44
2022/09/24 07:50:38;;;;;;;11.57;2.60;;;;;;;15.20;67.77;101329.13;5117889;28;20202;-44
2022/09/24 07:53:14;;;;;;;8.63;1.95;;;;;;;15.30;67.64;101337.78;5120314;28;20268;-39
2022/09/24 07:55:48;;;;;;;9.27;2.70;;;;;;;15.25;67.59;101333.94;5114620;28;20437;-39
2022/09/24 07:58:21;;;;;;;17.38;3.30;;;;;;;15.27;67.53;101345.22;5108804;28;20408;-40
2022/09/24 08:00:53;;;;;;;15.30;3.58;;;;;;;15.22;67.66;101343.09;5116162;28;20046;-39
2022/09/24 08:03:26;;;;;;;14.02;3.15;;;;;;;15.26;67.41;101346.25;5106196;28;20045;-42
2022/09/24 08:06:00;;;;;;;18.58;2.13;;;;;;;15.21;67.49;101328.97;5116805;28;20038;-42
2022/09/24 08:08:33;;;;;;;6.53;2.20;;;;;;;15.27;67.30;101342.56;5116848;28;20050;-42
2022/09/24 08:11:10;;;;;;;6.25;2.92;;;;;;;15.32;67.18;101361.53;5121065;28;20398;-43
2022/09/24 08:13:44;;;;;;;14.60;3.72;;;;;;;15.20;67.27;101348.56;5117636;28;20483;-49
2022/09/24 08:16:16;;;;;;;;;;;;;;;15.22;66.98;101357.22;5117141;28;20046;-41
2022/09/24 08:18:49;;;;;;;15.13;3.63;;;;;;;15.16;67.24;101357.06;5113758;28;20317;-42
2022/09/24 08:21:22;;;;;;;12.50;2.33;;;;;;;15.11;67.25;101360.25;5116519;28;20061;-45
2022/09/24 08:23:55;;;;;;;13.20;3.47;;;;;;;15.21;67.27;101370.72;5116410;28;20418;-44
2022/09/24 08:26:28;;;;;;;;;;;;;;;15.22;66.98;101373.19;5117145;28;20038;-42
2022/09/24 08:29:01;;;;;;;;;;;;;;;15.24;66.96;101375.69;5117114;28;19965;-41
2022/09/24 08:31:34;;;;;;;14.82;3.17;;;;;;;15.08;66.86;101360.56;5116038;28;19921;-40
2022/09/24 08:34:06;;;;;;;12.30;2.03;;;;;;;15.12;66.54;101377.84;5114964;28;20054;-42
2022/09/24 08:36:39;;;;;;;12.25;2.28;;;;;;;15.01;66.39;101370.19;5116011;28;20198;-47
2022/09/24 08:39:12;;;;;;;5.70;2.67;;;;;;;15.01;66.06;101364.03;5117435;28;20491;-43
2022/09/24 08:41:56;;;;;;;9.07;2.28;;;;;;;15.03;66.00;101378.84;5115927;28;20299;-43
2022/09/24 08:47:37;;;;;;;13.80;3.33;;;;;;;15.10;65.72;101389.66;5112151;28;20077;-41
2022/09/24 08:50:16;;;;;;;9.27;2.20;;;;;;;15.08;65.43;101391.63;5115573;28;20065;-46
2022/09/24 08:53:05;;;;;;;13.93;2.92;;;;;;;15.09;65.71;101388.81;5108496;28;20050;-37
2022/09/24 08:55:42;;;;;;;13.15;3.47;;;;;;;15.17;65.54;101386.19;5097371;28;20487;-45
2022/09/24 08:58:36;;;;;;;6.22;1.55;;;;;;;15.20;65.28;101385.81;5095976;28;20043;-45
2022/09/24 09:01:22;;;;;;;11.93;1.88;;;;;;;15.35;65.20;101401.94;5096902;28;20495;-43
2022/09/24 09:03:58;;;;;;;13.18;2.70;;;;;;;15.37;65.19;101407.13;5098163;28;20092;-46
2022/09/24 09:07:00;;;;;;;13.45;2.67;;;;;;;15.44;65.24;101402.78;5109106;28;20050;-44
2022/09/24 09:09:44;;;;;;;12.10;2.33;;;;;;;15.37;64.87;101393.81;5107920;28;20384;-45
2022/09/24 09:12:23;;;;;;;4.85;1.30;;;;;;;15.32;64.74;101401.47;5114179;28;20173;-47
2022/09/24 09:15:03;;;;;;;8.10;2.40;;;;;;;15.37;64.99;101401.81;5111437;28;20042;-45
2022/09/24 09:17:44;;;;;;;17.05;3.28;;;;;;;15.45;64.86;101404.44;5109696;28;20149;-46
2022/09/24 09:20:21;;;;;;;11.00;1.95;;;;;;;15.51;64.80;101410.91;5110202;28;20050;-43
2022/09/24 09:22:53;;;;;;;9.38;2.42;;;;;;;15.50;64.57;101406.59;5106850;28;20149;-44
2022/09/24 09:25:30;;;;;;;9.35;2.72;;;;;;;15.53;64.49;101417.75;5111969;28;20454;-44
2022/09/24 09:28:13;;;;;;;13.07;2.55;;;;;;;15.47;64.32;101417.59;5111112;28;20117;-42
2022/09/24 09:31:05;;;;;;;7.43;1.52;;;;;;;15.50;63.98;101423.41;5109598;28;20081;-46
2022/09/24 09:33:55;;;;;;;7.97;2.23;;;;;;;15.51;63.81;101414.41;5108562;28;20813;-47
2022/09/24 09:36:44;;;;;;;7.93;2.03;;;;;;;15.54;63.66;101423.91;5108847;28;20300;-43
2022/09/24 09:39:38;;;;;;;7.65;2.10;;;;;;;15.57;63.60;101419.06;5095332;28;20054;-47
2022/09/24 09:42:27;;;;;;;7.93;1.98;;;;;;;15.73;63.37;101431.56;5106757;28;20096;-43
2022/09/24 09:45:02;;;;;;;12.63;1.88;;;;;;;15.76;63.29;101422.41;5109699;28;20069;-47
2022/09/24 09:47:45;;;;;;;14.38;2.45;;;;;;;15.83;62.81;101428.72;5108002;28;20093;-44
2022/09/24 09:50:28;;;;;;;9.63;2.10;;;;;;;15.88;62.75;101426.38;5109727;28;20057;-43
2022/09/24 09:53:01;;;;;;;;;;;;;;;15.99;61.96;101434.00;5109317;28;20046;-44
2022/09/24 09:55:37;;;;;;;10.52;2.55;;;;;;;15.89;61.86;101418.22;5110475;28;20031;-42
2022/09/24 09:58:17;;;;;;;7.13;1.73;;;;;;;15.95;61.65;101432.69;5109720;28;20069;-41
2022/09/24 10:00:51;;;;;;;13.00;1.75;;;;;;;15.94;61.31;101427.53;5103927;28;20419;-44
2022/09/24 10:03:32;;;;;;;10.93;1.88;;;;;;;15.97;60.63;101441.34;5100400;28;20053;-46
2022/09/24 10:06:07;;;;;;;15.93;2.35;;;;;;;16.00;60.70;101434.84;5100465;28;20093;-45
2022/09/24 10:08:40;;;;;;;11.40;2.13;;;;;;;15.93;60.77;101426.69;5086805;28;20046;-45
2022/09/24 10:11:15;;;;;;;;;;;;;;;16.07;60.92;101435.81;5097533;28;20046;-45
2022/09/24 10:13:47;;;;;;;5.03;1.73;;;;;;;16.05;60.93;101428.00;5098166;28;20298;-44
2022/09/24 10:16:20;;;;;;;16.20;2.67;;;;;;;16.09;60.65;101428.47;5103033;28;20053;-42
2022/09/24 10:18:54;;;;;;;9.32;1.73;;;;;;;16.08;61.04;101432.97;5107791;28;20533;-43
2022/09/24 10:21:33;;;;;;;10.57;1.92;;;;;;;16.06;60.81;101432.31;5109749;28;20080;-45
2022/09/24 10:24:12;;;;;;;12.82;3.65;;;;;;;16.16;60.58;101441.94;5106662;28;20534;-43
2022/09/24 10:26:46;;;;;;;9.55;2.75;;;;;;;16.16;60.45;101434.78;5102587;28;20050;-43
2022/09/24 10:32:15;;;;;;;;;;;;;;;16.17;60.50;101446.28;5107165;28;20487;-44
2022/09/24 10:34:58;;;;;;;7.90;1.70;;;;;;;16.21;60.34;101436.94;5098715;28;19961;-45
2022/09/24 10:37:30;;;;;;;9.00;2.83;;;;;;;16.36;60.14;101435.22;5097311;28;20506;-41
2022/09/24 10:40:15;;;;;;;10.98;2.05;;;;;;;16.47;59.64;101426.81;5097310;28;20437;-45
2022/09/24 10:42:56;;;;;;;11.07;2.22;;;;;;;16.75;59.72;101439.69;5100112;28;20506;-46
2022/09/24 10:45:46;;;;;;;11.13;1.60;;;;;;;16.69;59.52;101441.22;5091853;28;20506;-42
2022/09/24 10:48:25;;;;;;;15.43;3.35;;;;;;;16.62;59.53;101447.41;5105072;28;20120;-35
2022/09/24 10:51:11;;;;;;;8.60;2.58;;;;;;;16.53;59.88;101436.78;5105825;28;20039;-48
2022/09/24 10:53:54;;;;;;;11.88;2.00;;;;;;;16.58;59.52;101439.78;5096576;28;20468;-47
2022/09/24 10:56:34;;;;;;;10.70;2.17;;;;;;;16.55;59.71;101440.13;5102639;28;20043;-47
2022/09/24 10:59:34;;;;;;;9.18;2.60;;;;;;;16.60;59.72;101453.78;5100715;28;20051;-47
2022/09/24 11:02:31;;;;;;;9.50;2.10;;;;;;;16.67;59.58;101445.06;5086578;28;20439;-44
2022/09/24 11:05:09;;;;;;;9.35;2.88;;;;;;;16.76;59.42;101452.06;5096792;28;20687;-45
2022/09/24 11:08:01;;;;;;;11.80;1.88;;;;;;;16.68;59.43;101454.72;5100344;28;20487;-47
2022/09/24 11:11:13;;;;;;;9.20;1.80;;;;;;;16.76;58.97;101454.72;5106701;28;20042;-46
2022/09/24 11:13:54;;;;;;;10.43;2.47;;;;;;;16.76;59.10;101452.88;5103689;28;20117;-45
2022/09/24 11:16:55;;;;;;;12.52;3.03;;;;;;;16.79;58.99;101449.03;5102113;28;20495;-43
2022/09/24 11:19:54;;;;;;;14.55;2.10;;;;;;;17.10;58.68;101445.50;5104127;28;20137;-44
2022/09/24 11:22:40;;;;;;;13.02;2.88;;;;;;;17.35;58.17;101455.00;5103987;28;20050;-45
2022/09/24 11:25:35;;;;;;;12.55;2.03;;;;;;;17.41;57.43;101462.28;5105051;28;20046;-44
2022/09/24 11:28:50;;;;;;;7.78;2.00;;;;;;;17.47;57.61;101456.22;5106508;28;20046;-44
2022/09/24 11:31:30;;;;;;;11.63;3.35;;;;;;;17.47;57.14;101456.22;5092393;28;20047;-45
2022/09/24 11:34:28;;;;;;;13.35;1.73;;;;;;;17.69;57.38;101464.38;5109643;28;20089;-43
2022/09/24 11:37:13;;;;;;;7.93;1.98;;;;;;;17.84;56.72;101462.59;5126801;28;20085;-44
2022/09/24 11:40:04;;;;;;;9.80;2.13;;;;;;;17.85;56.50;101460.75;5111164;28;20050;-43
2022/09/24 11:42:52;;;;;;;10.73;1.60;;;;;;;18.02;56.11;101464.06;5108285;28;20101;-42
2022/09/24 11:45:47;;;;;;;14.10;2.38;;;;;;;17.94;55.53;101463.16;5098219;28;20061;-51
2022/09/24 11:48:40;;;;;;;8.50;2.00;;;;;;;17.92;55.14;101459.81;5090052;28;20050;-47
2022/09/24 11:51:25;;;;;;;7.97;2.85;;;;;;;17.75;54.60;101469.81;5112059;28;20482;-45
2022/09/24 11:54:03;;;;;;;10.15;1.70;;;;;;;17.77;53.99;101464.31;5110379;28;20046;-47
2022/09/24 11:56:43;;;;;;;1.92;1.10;;;;;;;17.81;54.26;101459.44;5112144;28;20446;-45
2022/09/24 11:59:26;;;;;;;11.68;1.60;;;;;;;17.88;53.77;101461.22;5101917;28;20049;-45
2022/09/24 12:02:05;;;;;;;9.68;1.73;;;;;;;17.85;53.47;101456.22;5109143;28;20061;-43
2022/09/24 12:04:51;;;;;;;9.25;1.67;;;;;;;17.88;52.94;101453.19;5118264;28;20509;-46
2022/09/24 12:07:32;;;;;;;4.53;1.95;;;;;;;17.85;52.28;101456.22;5107293;28;20054;-42
2022/09/24 12:10:28;;;;;;;13.18;2.10;;;;;;;17.74;51.73;101451.28;5113021;28;20506;-48
2022/09/24 12:13:12;;;;;;;10.32;2.17;;;;;;;17.72;52.05;101464.84;5113179;28;20093;-45
2022/09/24 12:15:51;;;;;;;10.30;1.83;;;;;;;17.70;52.33;101455.34;5104545;28;20050;-46
2022/09/24 12:18:28;;;;;;;6.80;1.73;;;;;;;17.83;52.22;101463.59;5103156;28;20046;-42